Date,TemperatureHighF,TemperatureAvgF,TemperatureLowF,DewpointHighF,DewpointAvgF,DewpointLowF,HumidityHigh,HumidityAvg,HumidityLow,PressureMaxIn,PressureMinIn,WindSpeedMaxMPH,WindSpeedAvgMPH,GustSpeedMaxMPH,PrecipitationSumIn
2013-1-1,17.2,13.1,7.2,4.1,-1.8,-5.6,85,52,38,30.08,29.92,19,2,19,0.00
2013-1-2,19.3,12.9,6.9,-1.4,-3.8,-7.5,53,47,36,30.22,30.06,13,2,13,0.00
2013-1-3,31.6,17.6,5.1,0.1,-6.7,-16.1,53,36,14,30.24,30.17,6,1,6,0.00
2013-1-4,39.9,28.0,20.4,12.2,5.7,-4.1,46,39,29,30.23,30.06,6,2,6,0.00
2013-1-5,33.4,26.3,19.9,7.5,-2.9,-13.4,45,28,17,30.29,30.05,14,3,14,0.00
2013-1-6,45.9,35.1,23.8,1.1,-13.1,-34.8,22,13,4,30.28,30.04,15,2,15,0.00
2013-1-7,43.6,36.2,30.2,0.8,-7.1,-17.5,20,15,8,30.09,29.85,15,2,15,0.00
2013-1-8,32.0,30.1,27.5,15.9,11.0,-7.4,55,45,18,30.26,29.83,20,5,21,0.00
2013-1-9,49.4,38.1,31.0,13.1,8.7,0.4,44,30,15,30.35,30.10,11,2,13,0.00
2013-1-10,44.7,38.2,32.6,6.3,0.8,-7.1,32,21,12,30.11,29.53,10,1,10,0.00
2013-1-11,32.9,20.0,5.5,10.0,-0.9,-11.1,66,40,30,29.65,29.31,28,4,28,0.00
2013-1-12,11.6,3.2,-6.6,-0.8,-8.3,-13.8,85,60,34,29.79,29.64,17,2,17,0.00
2013-1-13,4.8,-2.6,-9.8,-1.1,-7.0,-13.9,85,81,74,29.88,29.73,6,1,6,0.00
2013-1-14,8.3,-1.4,-9.3,1.1,-9.1,-14.8,84,70,46,29.93,29.83,14,1,14,0.00
2013-1-15,28.2,16.6,1.0,14.2,0.0,-16.6,59,47,42,30.15,29.89,17,3,17,0.00
2013-1-16,41.7,30.1,21.7,18.5,13.8,10.2,71,51,36,30.41,30.14,9,1,9,0.00
2013-1-17,43.0,31.5,21.6,15.8,9.9,-0.3,71,43,22,30.50,30.30,14,2,14,0.00
2013-1-18,37.9,34.0,31.6,4.1,1.0,-1.1,29,24,21,30.31,30.16,24,5,24,0.00
2013-1-19,42.2,35.3,30.6,2.6,-1.3,-7.6,29,21,13,30.32,30.13,19,4,19,0.00
2013-1-20,40.9,32.5,25.0,9.9,1.4,-4.3,47,26,16,30.31,30.17,13,3,13,0.00
2013-1-21,37.2,31.2,26.6,8.0,2.2,-5.3,37,29,18,30.24,30.15,23,4,23,0.00
2013-1-22,34.0,34.0,33.9,-5.0,-5.1,-5.1,18,18,18,30.18,30.17,14,4,21,0.00
2013-1-25,43.5,38.8,35.2,26.2,24.6,22.4,62,56,49,30.25,30.14,17,3,17,0.00
2013-1-26,44.1,34.5,29.7,28.6,25.8,21.5,93,73,43,30.14,29.80,4,0,9,0.00
2013-1-27,42.0,32.4,27.8,28.3,18.8,12.2,93,57,41,29.85,29.79,10,1,11,0.00
2013-1-28,41.1,29.7,16.7,23.3,15.5,11.7,91,57,36,29.81,29.62,16,2,16,0.00
2013-1-29,18.5,14.1,6.1,14.3,1.3,-8.0,90,58,35,29.85,29.62,19,2,19,0.00
2013-1-30,23.9,15.5,5.6,15.4,5.1,-8.0,86,64,46,29.85,29.69,27,5,27,0.00
2013-1-31,29.6,25.6,22.7,17.3,13.2,10.4,69,59,49,30.18,29.81,22,4,23,0.00
2013-2-1,30.7,27.1,25.3,19.5,14.0,9.8,73,57,49,30.20,30.03,22,3,22,0.00
2013-2-2,38.6,30.6,25.2,12.4,8.6,2.3,57,40,26,30.34,30.16,21,3,21,0.00
2013-2-3,42.4,35.8,28.7,4.2,-4.6,-16.7,30,19,8,30.26,29.96,19,4,19,0.00
2013-2-4,37.6,30.6,27.0,11.7,5.1,-1.8,44,34,23,30.04,29.90,23,5,23,0.00
2013-2-5,44.9,36.1,29.1,20.0,16.7,11.1,51,45,35,30.14,29.97,20,3,20,0.00
2013-2-6,40.7,34.6,22.9,25.3,18.8,9.7,90,54,41,30.13,29.92,11,2,11,0.00
2013-2-7,39.2,27.8,18.6,12.1,1.0,-16.7,64,36,9,30.18,30.08,12,1,12,0.00
2013-2-8,40.8,31.8,25.9,15.9,-2.5,-12.6,54,24,15,30.08,29.76,9,2,9,0.00
2013-2-9,31.0,25.2,16.7,18.9,15.7,6.1,93,68,52,29.76,29.50,11,2,11,0.00
2013-2-10,22.2,16.3,7.2,14.3,7.2,0.1,90,68,39,29.95,29.52,11,2,11,0.00
2013-2-11,19.2,13.2,9.2,13.7,8.8,1.2,90,83,59,29.96,29.87,7,1,7,0.00
2013-2-12,30.7,19.6,13.2,5.5,1.0,-13.4,61,46,19,30.03,29.94,17,2,17,0.00
2013-2-13,28.6,23.2,17.4,12.8,8.5,4.8,59,53,44,30.03,29.93,24,6,24,0.00
2013-2-14,30.2,18.4,7.6,16.5,9.8,4.6,89,71,39,30.21,29.99,15,2,17,0.00
2013-2-15,24.0,16.8,7.4,10.6,6.5,4.2,87,66,45,30.25,30.15,23,3,23,0.00
2013-2-16,38.4,29.7,22.5,13.1,9.3,4.6,62,43,26,30.20,29.96,23,6,23,0.00
2013-2-17,43.1,32.5,20.0,15.4,2.7,-6.3,72,30,15,30.00,29.65,21,3,21,0.00
2013-2-18,22.7,18.9,10.7,5.4,0.7,-6.0,59,45,34,30.03,29.73,20,3,20,0.00
2013-2-19,37.9,24.1,8.5,5.6,-5.2,-28.1,69,32,8,30.02,29.77,10,1,10,0.00
2013-2-20,18.8,18.6,18.5,2.5,2.5,2.4,49,48,48,29.77,29.77,2,2,3,0.00
2013-2-23,33.9,25.8,16.2,18.0,13.8,7.0,84,62,43,29.69,29.56,22,2,22,0.00
2013-2-24,20.7,18.1,16.0,16.0,14.4,11.9,91,85,77,30.03,29.67,0,0,0,0.00
2013-2-25,32.0,23.1,17.9,20.9,13.2,3.4,84,67,41,30.00,29.80,1,0,1,0.00
2013-2-26,26.1,21.6,18.8,19.2,13.4,6.7,87,71,50,30.08,29.76,10,1,10,0.00
2013-2-27,24.4,15.3,0.0,14.4,1.2,-9.0,78,37,32,30.19,30.08,18,2,18,0.00
2013-2-28,27.4,20.3,14.0,9.8,4.0,-3.7,59,49,37,30.25,30.15,17,4,17,0.00
2013-3-1,34.9,27.9,21.6,20.1,13.9,6.3,66,55,45,30.37,30.24,20,3,20,0.00
2013-3-2,43.2,38.3,30.6,24.3,20.2,15.3,65,48,40,30.35,30.12,22,4,22,0.00
2013-3-3,44.4,37.6,30.6,27.9,20.0,13.7,88,51,33,30.12,29.69,28,3,28,0.00
2013-3-4,33.7,23.8,14.1,25.2,14.4,0.0,89,67,51,30.15,29.75,19,3,19,0.00
2013-3-5,44.2,28.3,14.0,2.7,-2.9,-11.5,60,31,10,30.22,30.12,19,4,19,0.01
2013-3-6,50.8,41.2,29.4,19.6,8.5,-7.4,50,26,15,30.18,29.93,19,2,19,0.00
2013-3-7,51.9,41.4,30.9,19.6,13.5,6.1,55,33,17,30.10,29.92,17,2,19,0.00
2013-3-8,44.5,34.1,25.4,26.7,17.2,7.7,94,54,32,30.07,29.74,7,1,8,0.00
2013-3-9,30.1,26.5,24.6,25.0,21.5,17.5,95,82,72,30.07,29.67,5,0,5,0.00
2013-3-10,38.9,29.7,17.5,19.9,14.8,5.6,72,55,32,30.14,30.05,24,1,24,0.07
2013-3-11,35.6,28.4,20.1,23.1,16.1,9.2,93,61,47,30.14,29.93,28,4,28,0.02
2013-3-12,38.4,27.6,19.1,26.4,20.0,17.3,93,75,51,30.30,30.14,21,2,21,0.00
2013-3-13,48.2,40.2,34.8,23.6,20.2,15.1,55,45,28,30.39,30.23,21,5,21,0.10
2013-3-14,53.3,45.6,40.5,21.0,16.7,11.6,44,31,21,30.45,30.33,17,3,17,0.00
2013-3-15,58.2,49.0,41.4,26.5,19.3,16.0,54,31,23,30.34,30.07,21,3,21,0.00
2013-3-16,43.2,35.1,28.5,37.1,25.8,17.9,91,70,46,30.09,29.89,11,1,11,0.05
2013-3-17,37.2,31.2,20.5,26.6,19.2,0.4,87,61,37,29.89,29.60,18,2,18,0.00
2013-3-18,29.8,23.7,16.5,12.9,6.0,-3.3,61,46,36,29.99,29.81,22,4,22,0.00
2013-3-19,37.7,28.1,14.6,9.1,-3.6,-17.2,72,29,9,30.33,29.97,21,3,21,0.00
2013-3-20,46.9,34.1,13.6,22.9,8.2,-12.3,75,38,17,30.31,29.80,28,3,28,0.00
2013-3-21,43.7,32.6,22.6,30.1,16.6,2.0,89,52,32,29.85,29.63,20,3,28,0.00
2013-3-22,34.4,22.6,15.4,19.7,10.6,1.8,92,63,27,29.88,29.72,15,1,15,0.00
2013-3-23,16.7,12.9,8.9,13.0,8.6,4.2,90,83,69,30.07,29.83,0,0,0,0.00
2013-3-24,22.2,12.0,3.7,6.3,2.8,-3.2,89,69,36,30.10,29.96,0,0,0,0.00
2013-3-25,27.3,14.0,2.1,15.6,4.2,-3.1,87,66,30,30.18,30.07,0,0,0,0.00
2013-3-26,43.3,29.8,10.6,24.5,14.8,2.0,90,55,33,30.15,29.95,18,1,18,0.05
2013-3-27,46.4,34.3,24.6,30.5,23.6,18.5,90,68,35,30.20,30.05,10,1,10,0.05
2013-3-28,49.9,38.9,30.0,27.9,22.3,16.7,72,52,34,30.29,30.17,10,1,10,0.00
2013-3-29,47.9,39.0,32.4,33.5,25.8,21.1,76,59,42,30.28,30.22,16,1,16,0.00
2013-3-30,47.6,38.9,29.8,30.1,24.8,20.2,93,58,38,30.29,30.15,13,2,13,0.00
2013-3-31,54.1,40.3,26.0,27.8,17.7,11.1,95,45,19,30.28,30.12,21,2,21,0.00
2013-4-1,42.0,31.7,25.1,29.6,24.8,18.6,96,76,53,30.24,30.11,8,1,8,0.00
2013-4-2,33.0,29.6,28.0,31.1,28.5,27.0,96,95,93,30.19,30.11,4,1,4,0.00
2013-4-3,50.2,38.4,30.0,33.2,27.9,22.0,95,69,36,30.29,30.15,4,1,12,0.41
2013-4-4,54.2,44.1,36.1,27.2,22.5,17.2,66,44,25,30.29,30.16,14,2,14,0.00
2013-4-5,57.2,46.6,34.5,32.1,22.1,17.2,90,40,25,30.17,29.83,18,3,19,0.03
2013-4-6,49.7,39.8,32.7,28.6,21.6,16.8,72,49,32,30.05,29.98,13,2,16,0.00
2013-4-7,45.5,37.9,32.1,31.1,24.7,19.4,91,60,39,29.99,29.80,19,2,20,0.02
2013-4-8,52.4,38.6,23.3,31.7,24.5,15.9,94,60,32,29.85,29.61,12,1,12,0.00
2013-4-9,23.2,13.3,8.8,21.7,9.9,4.7,94,86,75,30.03,29.76,6,0,6,0.00
2013-4-10,26.2,15.1,0.0,18.3,10.1,0.0,92,55,56,29.99,29.84,18,2,18,0.00
2013-4-11,22.4,22.3,22.2,11.2,11.1,11.0,62,62,61,29.85,29.85,13,3,13,0.00
2013-4-13,49.0,42.8,32.7,31.3,21.8,12.5,94,47,26,29.73,29.55,25,5,31,0.00
2013-4-14,32.6,25.3,21.0,31.1,12.7,-1.1,94,62,32,29.78,29.58,20,2,20,0.00
2013-4-15,26.2,21.7,17.9,21.7,18.2,11.9,91,86,57,29.95,29.71,9,0,9,0.00
2013-4-16,26.3,24.8,18.9,22.2,21.2,16.5,91,86,79,29.97,29.83,0,0,0,0.00
2013-4-17,26.4,20.6,12.5,22.2,16.5,8.3,91,84,74,30.07,29.88,0,0,0,0.00
2013-4-18,24.0,16.7,11.3,8.9,6.6,2.2,84,65,47,30.15,29.99,0,0,0,0.00
2013-4-19,36.9,28.0,18.0,20.6,14.4,6.8,65,56,46,30.12,30.02,20,2,20,0.01
2013-4-20,44.1,34.5,29.8,31.7,23.6,19.0,88,65,41,30.09,29.93,14,2,14,0.05
2013-4-21,45.2,36.2,29.6,29.0,21.1,16.3,87,55,35,30.17,30.07,13,2,13,0.00
2013-4-22,36.4,25.3,12.3,31.4,20.8,9.7,91,83,63,30.24,30.00,10,1,10,0.03
2013-4-23,29.8,19.2,12.3,20.1,12.7,8.0,90,76,59,30.19,30.07,0,0,0,0.00
2013-4-24,41.3,28.9,18.9,15.1,10.1,5.6,66,47,25,30.30,30.14,13,1,13,0.04
2013-4-25,27.8,26.2,26.2,7.3,6.2,6.2,43,42,40,30.25,30.25,2,0,5,0.00
2013-4-26,26.2,26.2,26.2,6.2,6.2,6.2,42,42,42,30.25,30.25,0,0,2,0.00
2013-4-27,58.7,47.9,26.2,21.0,14.8,6.2,42,27,17,30.33,30.22,11,2,12,0.00
2013-4-28,62.6,51.9,45.6,32.1,20.7,14.1,59,30,20,30.22,30.07,14,2,14,0.00
2013-4-29,66.0,52.5,40.0,32.7,24.0,16.1,67,36,18,30.13,29.83,20,2,20,0.00
2013-4-30,52.5,42.7,29.5,36.5,29.5,20.1,96,64,28,30.06,29.82,11,1,11,0.10
2013-5-1,29.3,24.7,20.0,28.2,21.1,15.5,96,86,72,30.54,30.06,3,0,3,0.00
2013-5-2,37.2,26.5,18.2,25.4,18.8,12.1,87,73,52,30.64,30.46,8,0,8,0.33
2013-5-3,51.6,38.5,27.8,29.7,20.7,10.1,74,50,28,30.46,30.23,14,1,14,0.16
2013-5-4,45.9,36.0,28.7,32.3,26.1,19.3,80,68,49,30.31,30.20,10,1,10,0.00
2013-5-5,47.6,35.9,27.2,34.6,26.8,19.3,94,71,47,30.31,30.21,8,1,8,0.05
2013-5-6,53.0,42.7,33.5,36.0,31.8,27.3,93,67,46,30.23,30.11,11,1,11,0.00
2013-5-7,57.2,45.7,37.5,36.6,31.5,23.0,92,60,28,30.18,30.08,12,2,12,0.03
2013-5-8,46.9,37.7,32.4,39.7,32.8,27.5,97,83,62,30.26,30.11,10,1,10,0.27
2013-5-9,44.0,36.7,32.6,38.6,34.3,30.1,97,91,75,30.35,30.23,7,0,7,1.00
2013-5-10,50.4,40.7,31.1,40.9,32.6,27.5,91,73,52,30.48,30.31,7,1,7,0.09
2013-5-11,57.9,43.6,33.5,43.9,34.3,27.6,86,71,34,30.51,30.40,8,1,8,0.05
2013-5-12,67.0,53.9,41.0,35.1,29.1,23.6,75,40,22,30.46,30.37,11,1,11,0.00
2013-5-13,71.8,60.9,52.7,38.5,31.7,27.5,46,34,21,30.45,30.32,11,2,11,0.00
2013-5-14,71.5,59.6,51.3,47.4,33.8,28.5,83,39,22,30.32,30.21,12,2,12,0.08
2013-5-15,69.3,55.2,43.9,40.6,35.1,29.7,81,48,27,30.24,30.15,9,2,9,0.00
2013-5-16,66.7,54.9,43.7,38.1,33.8,30.0,80,46,28,30.16,30.06,13,2,13,0.00
2013-5-17,73.5,58.0,44.8,36.0,26.0,15.2,60,33,12,30.15,30.05,11,1,11,0.00
2013-5-18,58.6,50.4,41.8,36.2,25.6,16.0,67,39,21,30.12,29.98,14,2,14,0.00
2013-5-19,52.9,44.5,39.7,30.8,27.1,23.6,63,51,36,30.02,29.92,16,3,16,0.00
2013-5-20,54.4,44.2,37.5,33.9,28.8,22.8,85,56,37,30.16,29.97,12,2,12,0.00
2013-5-21,58.4,45.3,35.9,28.3,24.1,18.6,70,44,26,30.17,30.07,19,2,19,0.00
2013-5-22,62.7,49.5,34.7,42.5,33.3,26.8,95,57,32,30.24,30.08,11,1,11,0.16
2013-5-23,51.2,44.7,40.5,47.7,43.0,39.7,98,94,86,30.25,30.17,5,0,5,0.01
2013-5-24,70.3,55.5,44.3,42.4,34.5,20.3,93,52,17,30.25,30.13,9,1,9,0.00
2013-5-25,72.5,59.3,44.7,43.8,25.6,10.2,83,32,10,30.25,30.15,9,2,9,0.00
2013-5-26,71.0,58.7,49.4,33.1,22.8,11.6,42,26,11,30.20,30.13,10,2,10,0.00
2013-5-27,68.3,58.3,46.4,25.9,19.7,13.3,43,23,14,30.13,29.99,13,2,13,0.00
2013-5-28,64.1,53.6,42.8,42.3,29.6,21.1,57,41,21,30.03,29.81,18,1,18,0.00
2013-5-29,54.1,44.7,39.2,39.0,32.4,24.9,90,64,33,29.85,29.74,20,2,20,0.00
2013-5-30,52.4,43.9,39.1,30.2,23.9,17.1,62,46,28,29.99,29.73,30,6,30,0.00
2013-5-31,55.1,45.9,37.5,21.0,17.0,9.5,49,32,21,30.20,29.93,23,4,23,0.00
2013-6-1,59.1,46.7,39.0,36.9,29.6,17.0,72,52,32,30.39,30.18,16,2,16,0.00
2013-6-2,73.5,54.6,34.4,35.2,27.8,16.6,78,42,14,30.37,30.08,12,2,12,0.00
2013-6-3,72.3,60.6,50.9,33.6,25.1,19.5,38,26,16,30.18,30.03,20,2,20,0.00
2013-6-4,63.5,50.1,39.0,48.2,37.5,14.9,95,65,23,30.37,30.16,12,1,12,0.07
2013-6-5,52.9,42.4,37.6,45.5,40.2,36.7,100,93,67,30.35,30.27,6,0,6,0.04
2013-6-6,39.2,39.1,39.1,37.8,37.7,37.5,95,94,94,30.30,30.30,0,0,0,0.00
2013-6-8,64.3,57.4,46.3,48.1,42.5,31.7,71,58,32,30.27,30.10,11,1,11,0.00
2013-6-9,81.3,62.9,42.4,41.4,32.4,26.5,79,37,14,30.28,30.22,15,2,15,0.00
2013-6-10,83.5,70.6,58.2,33.5,29.3,22.9,33,23,11,30.29,30.20,17,2,17,0.00
2013-6-11,79.3,69.6,61.2,30.8,21.0,12.7,30,16,8,30.23,30.14,22,3,22,0.00
2013-6-12,79.3,66.3,51.8,44.2,28.3,16.9,60,25,18,30.41,30.19,12,1,22,0.00
2013-6-13,80.0,66.0,49.0,45.2,35.5,24.8,76,38,15,30.40,30.20,17,1,18,0.00
2013-6-14,79.0,64.6,51.7,41.1,31.9,10.0,64,33,9,30.26,30.19,12,2,12,0.00
2013-6-15,71.5,57.8,44.3,46.8,43.3,38.4,85,60,40,30.34,30.23,10,1,10,0.00
2013-6-16,67.2,57.4,47.3,48.2,34.7,27.0,86,44,23,30.47,30.29,12,1,12,0.02
2013-6-17,70.7,56.9,47.1,52.4,40.4,28.3,95,56,30,30.41,30.32,11,1,11,0.28
2013-6-18,69.5,54.7,47.2,50.5,43.7,39.6,82,68,42,30.37,30.20,7,2,7,0.01
2013-6-19,82.3,63.7,44.0,43.8,27.9,4.5,91,38,7,30.24,30.02,11,1,11,0.00
2013-6-20,74.8,64.7,55.9,33.7,22.8,10.0,35,21,15,30.21,30.08,12,2,12,0.00
2013-6-21,80.2,65.7,51.1,40.3,25.0,11.1,56,26,8,30.20,30.11,12,2,12,0.00
2013-6-22,75.0,59.4,47.3,45.8,34.7,20.5,69,43,15,30.19,30.05,12,1,12,0.00
2013-6-23,74.0,59.5,48.7,48.0,34.3,20.0,59,39,21,30.24,30.10,13,2,13,0.00
2013-6-24,76.3,62.2,46.3,40.2,26.0,14.3,66,31,10,30.18,30.07,13,2,13,0.00
2013-6-25,74.9,64.5,55.5,36.5,29.9,21.9,34,27,21,30.34,30.10,8,2,15,0.00
2013-6-26,84.5,69.8,56.8,35.2,31.4,26.5,37,25,14,30.45,30.32,10,2,10,0.00
2013-6-27,86.0,72.0,60.8,41.3,34.5,23.9,45,27,12,30.59,30.43,13,1,13,0.00
2013-6-28,83.0,68.8,52.6,57.1,44.1,31.0,90,45,17,30.58,30.47,9,2,9,0.11
2013-6-29,53.6,53.5,53.5,49.4,49.0,48.6,86,84,83,30.53,30.52,3,1,3,0.00
2013-6-30,70.3,60.3,51.8,55.4,50.8,46.0,90,72,48,30.48,30.42,7,1,10,0.03
2013-7-1,64.7,58.2,47.0,53.2,49.5,44.5,92,74,56,30.56,30.47,7,1,7,0.12
2013-7-2,72.8,58.2,45.2,52.0,45.4,39.6,94,65,39,30.51,30.40,13,1,13,0.01
2013-7-3,77.0,59.8,47.7,49.1,42.3,32.7,89,56,31,30.40,30.24,8,1,14,0.24
2013-7-4,76.8,64.4,56.7,52.8,42.3,38.2,59,45,29,30.32,30.24,9,2,9,0.01
2013-7-5,76.0,61.7,54.4,54.7,47.0,39.9,81,59,35,30.24,30.17,13,1,13,0.05
2013-7-6,79.3,64.5,54.6,51.5,46.1,39.4,79,52,30,30.31,30.18,18,2,18,0.01
2013-7-7,78.0,64.0,53.5,56.8,46.2,38.3,92,55,28,30.38,30.29,13,1,13,0.32
2013-7-8,80.0,67.2,58.6,46.7,42.1,37.1,59,41,24,30.44,30.34,16,2,16,0.00
2013-7-9,82.0,69.5,59.8,41.5,36.6,28.1,48,32,16,30.53,30.43,10,1,10,0.00
2013-7-10,78.8,65.1,52.9,57.8,45.2,38.0,83,49,30,30.53,30.35,10,1,10,0.09
2013-7-11,84.3,71.4,58.1,50.8,44.2,35.7,63,41,20,30.41,30.22,13,2,13,0.00
2013-7-12,67.8,67.5,65.5,44.1,43.7,42.9,45,42,41,30.31,30.28,3,3,8,0.00
2013-7-13,78.2,63.9,52.9,56.1,49.2,43.8,94,64,33,30.46,30.29,9,2,9,0.31
2013-7-14,67.5,57.5,51.3,56.1,51.9,47.2,96,82,58,30.50,30.39,9,1,9,1.95
2013-7-15,68.3,56.7,51.2,60.0,53.9,50.1,97,91,73,30.47,30.39,6,0,7,0.00
2013-7-16,73.5,59.8,49.9,53.3,48.3,43.1,96,69,37,30.49,30.36,9,1,9,0.00
2013-7-17,78.0,63.7,50.5,55.2,49.0,42.5,81,60,39,30.49,30.42,8,1,8,0.00
2013-7-18,81.3,64.4,54.5,53.5,49.2,44.9,91,60,37,30.48,30.40,12,1,12,0.18
2013-7-19,71.0,61.3,53.7,56.0,51.7,42.0,88,72,50,30.48,30.36,10,2,10,0.01
2013-7-20,80.4,63.0,50.7,56.2,46.3,38.8,88,57,27,30.37,30.27,11,1,11,0.01
2013-7-21,81.7,67.1,51.7,53.8,38.4,20.3,86,39,12,30.28,30.19,16,2,16,0.00
2013-7-22,85.0,70.3,59.0,50.7,29.4,8.7,48,25,7,30.33,30.24,9,2,13,0.00
2013-7-23,83.0,68.8,57.5,52.9,34.3,13.2,81,33,8,30.46,30.30,9,1,9,0.00
2013-7-24,74.5,59.0,49.4,56.7,51.1,45.1,95,76,51,30.46,30.34,9,1,9,0.21
2013-7-25,68.0,56.2,49.7,53.5,48.9,44.7,94,78,46,30.52,30.32,7,0,7,0.16
2013-7-26,74.0,58.2,0.0,53.8,45.9,0.0,90,65,33,30.56,30.44,4,0,4,0.10
2013-7-27,76.7,60.9,51.8,54.5,45.7,36.2,96,61,27,30.44,30.31,12,1,12,0.03
2013-7-28,66.5,54.4,49.7,56.9,52.2,48.9,100,93,68,30.31,30.18,3,0,3,0.05
2013-7-29,69.3,58.3,50.2,51.7,45.7,41.9,87,64,42,30.45,30.21,7,1,11,0.06
2013-7-30,74.0,61.9,51.3,47.3,43.7,39.8,77,53,32,30.54,30.43,13,1,13,0.00
2013-7-31,76.7,63.9,53.4,50.9,45.3,39.9,76,52,33,30.59,30.48,7,0,7,0.00
2013-8-1,55.0,54.7,54.0,46.9,46.7,46.4,76,74,74,30.52,30.50,2,0,3,0.00
2013-8-2,54.9,54.9,54.9,46.8,46.8,46.8,74,74,74,30.50,30.50,0,0,1,0.00
2013-8-3,77.7,63.5,50.4,58.4,47.4,40.3,96,62,29,30.52,30.38,9,1,9,0.03
2013-8-4,78.1,64.1,49.7,49.5,43.3,35.9,96,49,24,30.46,30.38,5,1,12,0.00
2013-8-5,74.6,63.0,55.9,54.7,43.9,38.0,83,51,29,30.40,30.31,11,1,11,0.00
2013-8-6,76.8,64.2,56.8,43.3,38.6,34.6,53,40,23,30.36,30.29,14,2,14,0.00
2013-8-7,66.0,56.7,48.8,50.0,43.9,33.5,88,63,39,30.37,30.28,5,0,5,0.00
2013-8-8,67.2,54.5,47.2,53.8,43.8,33.4,79,67,46,30.43,30.27,7,0,7,0.00
2013-8-9,67.9,52.5,46.7,51.1,44.2,39.7,93,75,45,30.49,30.38,5,0,8,0.00
2013-8-10,75.8,59.0,47.2,49.7,41.9,34.3,80,55,26,30.47,30.41,10,0,10,0.00
2013-8-11,67.8,59.0,51.5,49.6,42.3,37.2,83,54,40,30.48,30.42,5,0,6,0.00
2013-8-13,64.7,55.4,50.4,51.8,46.4,39.5,94,72,54,30.51,30.42,10,0,10,0.00
2013-8-14,68.3,55.5,45.9,53.4,42.1,35.8,94,62,43,30.48,30.39,7,0,7,0.00
2013-8-15,74.8,62.1,50.1,47.8,36.5,29.0,60,40,19,30.49,30.39,9,1,9,0.00
2013-8-16,77.2,64.5,51.5,42.3,36.5,29.0,66,37,20,30.50,30.43,8,1,8,0.00
2013-8-17,80.7,66.5,54.7,46.3,33.7,21.4,53,32,13,30.48,30.37,7,1,7,0.00
2013-8-18,78.7,67.3,60.1,47.3,37.9,30.5,51,34,21,30.46,30.37,10,1,10,0.00
2013-8-19,60.6,60.4,60.3,39.2,39.1,38.6,45,45,45,30.44,30.44,2,2,2,0.00
2013-8-30,77.9,64.7,0.0,57.5,49.2,0.0,90,59,31,30.52,30.42,7,1,7,0.00
2013-8-31,80.5,62.4,53.5,55.3,46.5,41.0,92,59,28,30.45,30.38,7,1,7,0.00
2013-9-1,70.3,57.4,51.3,57.2,50.7,44.2,89,79,61,30.46,30.39,6,0,6,0.00
2013-9-2,76.4,64.4,53.3,52.6,47.3,43.0,80,55,32,30.43,30.36,6,1,7,0.00
2013-9-3,80.7,68.2,59.4,53.9,47.1,37.5,65,48,22,30.48,30.39,8,1,8,0.00
2013-9-4,59.9,59.6,59.5,47.4,47.4,47.2,64,64,63,30.46,30.45,5,2,5,0.00
2013-9-5,59.6,59.6,59.6,47.4,47.4,47.4,64,64,64,30.45,30.45,2,2,5,0.00
2013-9-6,59.6,59.6,59.6,47.4,47.4,47.4,64,64,64,30.45,30.45,2,2,5,0.00
2013-9-7,59.6,59.6,59.6,47.4,47.4,47.4,64,64,64,30.45,30.45,2,2,5,0.00
2013-9-8,59.6,59.6,59.6,47.4,47.4,47.4,64,64,64,30.45,30.45,2,2,5,0.00
2013-9-9,59.6,57.2,51.1,54.3,49.3,47.4,97,77,64,30.45,30.22,3,1,5,0.00
2013-9-10,53.4,51.2,49.2,52.6,50.6,48.7,98,98,96,30.43,30.26,1,0,3,0.00
2013-9-11,53.8,51.8,49.9,53.3,51.3,49.2,99,98,98,30.46,30.39,1,0,1,0.00
2013-9-12,52.3,24.2,0.0,51.8,24.0,0.0,99,46,98,30.52,30.45,1,0,1,0.00
2013-9-15,49.7,47.9,46.5,49.1,47.2,45.6,100,97,95,30.46,30.30,2,0,2,0.00
2013-9-16,63.3,52.1,0.0,54.7,47.5,0.0,100,85,51,30.42,30.30,4,0,4,0.00
2013-9-17,70.5,59.2,51.5,44.3,40.2,28.0,69,51,23,30.34,30.13,8,0,8,0.00
2013-9-18,68.4,57.4,51.2,45.2,40.4,36.1,68,54,35,30.19,30.09,14,1,14,0.00
2013-9-19,53.0,46.8,39.2,43.5,39.6,34.4,94,77,56,30.37,30.16,9,0,9,0.00
2013-9-20,60.4,47.6,36.1,46.4,38.8,25.6,95,74,33,30.35,30.27,2,0,2,0.00
2013-9-21,67.6,56.3,49.8,40.1,31.9,25.9,50,40,30,30.27,30.09,11,0,11,0.00
2013-9-22,62.3,51.5,43.5,46.2,39.0,31.0,89,64,44,30.09,29.82,14,1,14,0.00
2013-9-23,49.3,44.0,40.0,41.5,32.7,27.6,94,66,46,30.25,29.73,21,3,21,0.00
2013-9-24,63.9,52.2,44.6,38.6,25.2,12.5,59,37,16,30.33,30.08,21,2,21,0.00
2013-9-25,69.8,58.8,48.5,37.7,22.3,9.3,37,25,14,30.08,29.76,13,1,13,0.00
2013-9-26,58.0,48.9,42.2,43.4,37.0,25.1,90,65,36,29.96,29.82,6,0,6,0.00
2013-9-27,44.5,39.0,33.4,41.0,37.2,30.5,98,93,86,30.06,29.90,8,0,8,0.00
2013-9-28,52.2,41.3,33.4,36.4,26.3,16.6,90,59,37,30.31,30.04,18,2,18,0.01
2013-9-29,59.4,51.1,41.7,24.7,19.3,15.2,42,29,22,30.28,30.09,19,2,19,0.00
2013-9-30,67.0,57.1,51.2,33.0,24.7,20.4,36,29,23,30.18,30.07,20,3,20,0.00
2013-10-1,61.9,54.1,45.3,43.2,37.2,22.3,76,54,29,30.28,30.17,8,1,8,0.00
2013-10-2,66.0,53.4,41.2,38.9,30.1,21.7,82,44,20,30.21,30.11,6,1,10,0.00
2013-10-3,57.6,45.8,36.5,40.7,35.5,23.4,96,70,32,30.11,29.90,7,0,7,0.26
2013-10-4,38.2,30.4,24.3,37.2,24.4,11.7,97,79,58,30.21,29.88,19,1,19,0.18
2013-10-5,42.5,33.4,24.9,14.7,10.0,-2.1,60,39,18,30.38,30.15,19,4,19,0.01
2013-10-6,59.2,48.0,38.4,33.1,22.5,-2.0,49,37,17,30.44,30.33,14,1,14,0.00
2013-10-7,65.5,55.0,47.2,22.1,13.2,1.3,32,20,10,30.40,30.15,12,2,12,0.00
2013-10-8,64.6,54.7,46.5,29.2,20.3,13.2,44,27,16,30.16,30.00,17,1,17,0.00
2013-10-9,56.9,46.4,38.5,38.4,32.4,24.2,92,60,37,30.14,30.04,7,0,7,0.00
2013-10-10,48.5,40.1,35.0,43.0,33.7,24.6,93,78,56,30.10,29.63,19,1,19,0.05
2013-10-11,43.2,38.6,33.4,29.2,25.6,22.6,84,60,46,30.18,29.58,27,4,27,0.07
2013-10-12,45.2,36.2,30.3,35.8,31.4,27.9,95,83,58,30.26,30.18,8,0,8,0.00
2013-10-13,53.9,40.9,30.5,40.0,32.7,25.3,92,74,46,30.25,30.04,8,1,8,0.00
2013-10-14,41.4,37.1,29.6,33.4,28.5,22.5,92,71,56,30.23,29.91,18,2,18,0.01
2013-10-15,29.7,26.7,24.2,28.1,25.0,22.4,96,93,86,30.31,30.22,4,0,4,0.00
2013-10-16,40.1,31.5,20.4,22.7,18.6,14.1,95,61,41,30.23,30.10,17,2,17,0.06
2013-10-17,40.5,32.9,27.5,28.7,22.5,14.9,95,67,38,30.18,30.09,12,2,20,0.01
2013-10-18,33.3,29.0,19.4,26.2,16.0,12.5,95,59,45,30.20,30.10,17,2,17,0.00
2013-10-19,46.7,38.0,30.6,22.2,17.8,14.6,54,44,33,30.15,30.03,23,5,23,0.05
2013-10-20,40.7,34.3,24.2,31.5,23.5,18.1,95,68,42,30.20,30.02,14,2,14,0.00
2013-10-21,42.9,33.5,23.2,24.8,21.7,18.5,92,64,46,30.33,30.19,14,2,14,0.09
2013-10-22,53.2,44.9,36.5,27.7,24.0,21.6,56,44,34,30.37,30.28,17,2,17,0.03
2013-10-23,55.4,45.4,35.5,33.2,25.7,20.0,72,47,27,30.38,30.29,11,2,11,0.00
2013-10-24,54.2,41.7,31.5,30.9,26.2,22.5,82,56,34,30.38,30.33,8,1,8,0.00
2013-10-25,58.7,45.6,36.2,31.0,23.3,18.3,58,42,23,30.42,30.30,8,1,8,0.00
2013-10-26,51.7,41.4,31.3,33.0,25.9,16.5,71,55,31,30.45,30.27,10,1,10,0.00
2013-10-27,53.7,46.1,39.1,24.8,20.6,15.7,46,36,30,30.28,30.04,15,2,15,0.00
2013-10-28,43.6,29.6,22.9,27.7,23.9,20.2,95,82,39,30.08,30.00,4,0,4,0.00
2013-10-29,47.1,29.1,20.4,34.8,25.0,18.9,97,87,39,30.03,29.92,10,0,10,0.00
2013-10-30,36.2,31.2,27.1,29.6,20.8,15.1,96,66,50,29.95,29.86,20,3,20,0.00
2013-10-31,33.1,29.7,26.9,24.2,17.3,12.3,78,60,48,30.00,29.88,19,6,24,0.01
2013-11-1,37.4,32.8,29.3,25.1,19.4,15.7,82,58,43,30.32,29.99,15,3,18,0.00
2013-11-2,52.9,43.9,32.4,19.6,4.4,-14.7,58,25,6,30.32,29.92,23,4,23,0.00
2013-11-3,50.3,43.0,25.9,27.2,12.6,-12.3,82,34,7,29.93,29.76,19,3,19,0.00
2013-11-4,30.4,25.2,19.6,20.5,14.1,6.6,82,63,44,30.02,29.85,16,2,16,0.00
2013-11-5,27.3,21.3,17.2,16.7,7.1,-1.5,85,56,35,30.16,29.92,29,3,29,0.00
2013-11-6,33.7,27.5,17.7,17.4,11.8,1.7,59,51,44,30.44,30.11,24,4,24,0.00
2013-11-7,47.9,38.2,30.4,20.1,17.9,16.0,59,45,29,30.47,30.13,20,3,20,0.00
2013-11-8,50.5,43.4,38.7,19.3,15.5,8.1,41,32,23,30.22,29.86,27,4,27,0.04
2013-11-9,52.3,41.9,31.7,25.4,19.1,16.4,70,41,28,30.37,30.19,12,2,12,0.00
2013-11-10,52.8,45.2,39.9,20.4,17.2,13.6,44,33,25,30.41,30.34,11,2,12,0.00
2013-11-11,53.6,38.5,23.2,29.3,21.1,13.9,95,55,22,30.67,30.33,21,2,21,0.00
2013-11-12,49.4,38.0,23.6,26.2,20.0,1.9,94,53,17,30.69,30.52,8,1,8,0.00
2013-11-13,50.7,45.1,39.9,17.5,9.2,0.6,40,23,16,30.52,30.18,15,2,15,0.00
2013-11-14,44.5,38.6,33.9,23.0,15.1,5.0,60,39,26,30.19,29.87,13,2,13,0.00
2013-11-15,44.7,37.1,28.9,28.5,15.6,-1.4,91,46,17,29.87,29.55,18,3,18,0.00
2013-11-16,36.9,31.7,28.2,23.2,17.3,13.3,78,55,44,29.56,29.36,32,6,32,0.09
2013-11-20,40.2,36.1,27.3,24.0,20.9,19.1,87,54,45,30.02,29.88,14,1,14,0.00
2013-11-21,27.1,10.8,3.5,24.0,7.5,-0.1,91,86,78,30.44,30.00,6,1,6,0.00
2013-11-22,34.1,20.5,12.0,18.5,12.0,3.1,88,71,36,30.56,30.41,5,0,5,0.00
2013-11-23,27.7,21.4,15.7,21.5,17.7,10.8,92,86,75,30.54,30.27,7,0,7,0.00
2013-11-24,40.9,32.5,22.4,31.1,25.2,5.1,93,75,34,30.27,30.00,6,0,6,0.09
2013-11-25,33.2,27.5,22.3,21.6,18.1,8.2,79,68,39,30.32,30.10,6,0,6,0.00
2013-11-26,39.4,28.5,21.0,19.0,15.3,11.3,76,59,36,30.40,30.29,8,1,8,0.00
2013-11-27,46.9,38.2,30.6,17.8,14.2,8.6,58,38,23,30.29,30.20,18,2,18,0.04
2013-11-28,44.4,34.8,26.6,25.3,17.1,10.8,64,49,30,30.28,30.21,9,1,9,0.00
2013-11-29,42.5,38.0,33.8,18.2,15.4,11.3,51,40,29,30.30,30.21,12,3,18,0.00
2013-11-30,40.7,35.1,31.9,17.0,13.4,7.9,52,41,27,30.31,30.24,18,3,18,0.00
2013-12-1,38.7,33.8,29.6,22.8,18.0,12.6,64,52,42,30.27,29.82,27,4,27,0.00
2013-12-2,37.8,34.9,32.4,22.8,21.2,18.9,67,57,50,29.91,29.62,38,8,38,0.00
2013-12-3,35.2,24.1,1.6,28.8,16.7,-2.0,93,75,51,29.67,29.53,21,1,21,0.00
2013-12-4,4.8,-1.1,-8.1,-1.5,-5.6,-13.4,86,81,70,29.79,29.53,0,0,0,0.00
2013-12-5,9.7,-1.6,-8.1,2.1,-7.3,-11.9,84,76,64,29.84,29.71,0,0,0,0.00
2013-12-6,9.4,-1.5,-10.2,-0.5,-7.9,-14.7,83,74,56,29.95,29.82,0,0,0,0.00
2013-12-7,18.2,8.4,-2.0,7.8,1.4,-7.6,87,73,56,29.93,29.57,0,0,0,0.00
2013-12-8,15.4,9.4,-0.6,5.7,-1.5,-9.7,83,61,43,29.81,29.52,17,1,17,0.00
2013-12-9,9.6,2.3,-6.8,-2.8,-9.9,-14.5,86,57,41,30.02,29.77,29,6,29,0.00
2013-12-10,24.0,19.3,9.1,8.5,5.3,-2.7,60,54,46,30.15,29.86,28,6,28,0.00
2013-12-11,33.4,25.6,18.7,6.9,1.6,-9.7,58,38,15,30.36,30.14,24,4,24,0.00
2013-12-12,45.9,38.1,32.3,6.6,-0.6,-9.4,26,19,13,30.35,30.03,18,3,18,0.00
2013-12-13,36.8,31.1,21.8,11.8,7.4,1.4,54,37,24,30.13,29.92,18,2,18,0.00
2013-12-14,28.5,24.1,18.4,12.0,7.6,3.9,55,49,38,30.23,30.12,29,4,29,0.01
2013-12-15,36.5,31.5,25.9,16.4,14.0,10.6,62,48,35,30.25,30.13,26,6,26,0.03
2013-12-16,41.9,37.5,34.6,16.9,12.2,4.0,46,35,25,30.37,30.14,29,6,29,0.02
2013-12-17,45.4,39.3,33.7,13.2,10.7,8.1,37,30,25,30.44,30.24,13,4,17,0.00
2013-12-18,48.2,41.9,37.6,16.7,8.9,4.6,40,26,18,30.24,29.87,24,3,24,0.00
2013-12-19,45.7,34.0,13.6,23.5,16.6,10.9,93,54,27,29.87,29.63,11,2,20,0.00
2013-12-20,32.8,24.5,10.6,24.6,14.9,5.4,96,69,49,29.74,29.61,13,1,13,0.00
2013-12-21,27.1,21.1,14.7,17.7,10.3,4.3,91,65,45,29.84,29.52,13,1,13,0.00
2013-12-22,24.7,18.6,11.7,14.1,7.4,2.8,88,62,47,30.12,29.84,16,3,16,0.00
2013-12-23,30.0,23.0,8.0,19.6,13.3,5.2,92,67,52,30.23,30.08,25,4,25,0.04
2013-12-24,33.9,26.2,18.0,25.5,13.9,1.1,87,60,45,30.27,29.99,26,5,26,0.00
2013-12-25,33.7,26.0,17.0,6.2,2.8,-2.2,52,37,24,30.37,30.23,22,4,22,0.00
2013-12-26,41.2,32.6,27.9,13.5,6.3,-6.4,46,33,19,30.37,30.27,20,3,22,0.00
2013-12-27,49.1,38.4,31.0,19.8,17.2,12.7,52,42,30,30.35,30.14,6,2,11,0.00
2013-12-28,41.1,31.9,13.7,19.5,16.9,11.0,91,57,34,30.14,29.95,14,2,14,0.00
2013-12-29,26.1,19.3,7.5,16.5,7.7,-1.4,93,64,33,30.15,29.91,27,3,27,0.00
2013-12-30,29.0,25.6,21.6,13.4,10.1,4.8,60,52,44,30.22,29.95,23,5,23,0.00
2013-12-31,34.4,31.7,28.6,20.0,17.3,12.1,64,55,43,30.12,29.96,28,5,28,0.02
2014-1-1,31.8,24.7,18.8,23.4,13.5,6.7,86,62,49,30.26,29.93,21,2,21,0.00
2014-1-2,37.6,30.5,21.4,15.8,7.5,-3.7,58,39,20,30.27,30.02,20,5,20,0.00